createdAt,value
2023-04-10T00:01:37.747Z,101367.28
2023-04-10T00:04:04.919Z,101363.72
2023-04-10T00:06:31.634Z,101358.34
2023-04-10T00:08:58.082Z,101357.47
2023-04-10T00:11:26.366Z,101365.53
2023-04-10T00:13:53.385Z,101366.41
2023-04-10T00:16:20.155Z,101375.38
2023-04-10T00:18:46.744Z,101365.50
2023-04-10T00:21:13.131Z,101367.28
2023-04-10T00:23:39.564Z,101365.47
2023-04-10T00:26:06.159Z,101369.03
2023-04-10T00:28:33.915Z,101370.81
2023-04-10T00:31:00.300Z,101365.44
2023-04-10T00:33:26.716Z,101367.25
2023-04-10T00:35:53.178Z,101359.16
2023-04-10T00:38:19.804Z,101350.22
2023-04-10T00:40:46.269Z,101354.69
2023-04-10T00:43:12.913Z,101359.19
2023-04-10T00:45:41.226Z,101349.34
2023-04-10T00:48:07.729Z,101355.59
2023-04-10T00:50:34.223Z,101351.13
2023-04-10T00:53:00.681Z,101345.75
2023-04-10T00:55:27.168Z,101342.19
2023-04-10T00:57:56.268Z,101346.69
2023-04-10T01:00:22.912Z,101335.94
2023-04-10T01:02:50.792Z,101335.94
2023-04-10T01:05:17.467Z,101335.03
2023-04-10T01:07:53.901Z,101329.69
2023-04-10T01:10:27.871Z,101335.03
2023-04-10T01:13:02.702Z,101326.09
2023-04-10T01:15:36.310Z,101323.41
2023-04-10T01:18:10.216Z,101327.00
2023-04-10T01:20:38.919Z,101319.81
2023-04-10T01:23:41.078Z,101321.59
2023-04-10T01:26:12.330Z,101313.53
2023-04-10T01:28:59.484Z,101312.66
2023-04-10T01:31:34.066Z,101319.81
2023-04-10T01:34:04.654Z,101323.41
2023-04-10T01:36:36.085Z,101314.44
2023-04-10T01:39:04.275Z,101321.59
2023-04-10T01:41:33.009Z,101325.19
2023-04-10T01:44:03.554Z,101321.59
2023-04-10T01:46:31.612Z,101326.09
2023-04-10T01:49:01.627Z,101322.47
2023-04-10T01:51:30.352Z,101316.22
2023-04-10T01:53:59.426Z,101318.00
2023-04-10T01:56:28.470Z,101316.19
2023-04-10T01:58:56.147Z,101319.75
2023-04-10T02:01:29.638Z,101322.41
2023-04-10T02:03:58.012Z,101315.22
2023-04-10T02:06:31.929Z,101315.22
2023-04-10T02:09:05.820Z,101322.44
2023-04-10T02:11:41.209Z,101316.16
2023-04-10T02:14:10.978Z,101326.91
2023-04-10T02:16:39.419Z,101320.66
2023-04-10T02:19:06.930Z,101325.13
2023-04-10T02:21:33.668Z,101322.44
2023-04-10T02:24:00.628Z,101323.31
2023-04-10T02:26:27.020Z,101324.16
2023-04-10T02:28:53.418Z,101320.59
2023-04-10T02:31:19.930Z,101322.38
2023-04-10T02:33:49.048Z,101326.78
2023-04-10T02:36:16.539Z,101326.78
2023-04-10T02:38:42.950Z,101327.63
2023-04-10T02:41:11.219Z,101326.72
2023-04-10T02:43:37.694Z,101333.88
2023-04-10T02:46:04.681Z,101331.16
2023-04-10T02:48:37.254Z,101332.91
2023-04-10T02:51:05.719Z,101339.16
2023-04-10T02:53:33.922Z,101337.34
2023-04-10T02:56:01.200Z,101343.59
2023-04-10T02:58:28.096Z,101343.59
2023-04-10T03:00:56.247Z,101347.13
2023-04-10T03:03:38.213Z,101355.19
2023-04-10T03:06:08.141Z,101348.00
2023-04-10T03:08:34.991Z,101354.22
2023-04-10T03:11:01.498Z,101349.69
2023-04-10T03:13:28.315Z,101347.91
2023-04-10T03:15:55.053Z,101349.69
2023-04-10T03:18:22.320Z,101355.94
2023-04-10T03:20:51.629Z,101349.72
2023-04-10T03:23:21.471Z,101340.81
2023-04-10T03:25:50.115Z,101342.63
2023-04-10T03:28:17.204Z,101333.72
2023-04-10T03:30:43.637Z,101341.81
2023-04-10T03:33:10.258Z,101340.97
2023-04-10T03:35:36.810Z,101332.03
2023-04-10T03:38:03.270Z,101335.66
2023-04-10T03:40:31.087Z,101333.84
2023-04-10T03:42:57.649Z,101328.47
2023-04-10T03:45:25.002Z,101323.09
2023-04-10T03:47:51.917Z,101332.97
2023-04-10T03:50:19.148Z,101322.22
2023-04-10T03:52:51.417Z,101335.66
2023-04-10T03:55:20.135Z,101324.88
2023-04-10T03:57:49.184Z,101327.53
2023-04-10T04:00:18.010Z,101326.63
2023-04-10T04:02:47.251Z,101333.75
2023-04-10T04:05:20.984Z,101320.31
2023-04-10T04:08:13.143Z,101333.72
2023-04-10T04:11:00.351Z,101331.03
2023-04-10T04:13:36.430Z,101336.41
2023-04-10T04:16:08.187Z,101333.72
2023-04-10T04:18:54.911Z,101340.88
2023-04-10T04:21:31.147Z,101339.09
2023-04-10T04:24:17.367Z,101336.41
2023-04-10T04:26:53.729Z,101331.91
2023-04-10T04:29:47.808Z,101331.00
2023-04-10T04:32:25.941Z,101336.31
2023-04-10T04:34:56.711Z,101346.13
2023-04-10T04:37:46.062Z,101345.19
2023-04-10T04:40:21.344Z,101349.66
2023-04-10T04:43:06.378Z,101341.59
2023-04-10T04:46:00.626Z,101344.31
2023-04-10T04:48:38.823Z,101347.06
2023-04-10T04:51:13.362Z,101355.09
2023-04-10T04:53:48.351Z,101355.13
2023-04-10T04:56:47.188Z,101347.09
2023-04-10T04:59:33.032Z,101344.41
2023-04-10T05:02:06.659Z,101356.06
2023-04-10T05:04:52.190Z,101346.22
2023-04-10T05:07:40.154Z,101353.38
2023-04-10T05:10:25.221Z,101355.19
2023-04-10T05:13:10.696Z,101338.19
2023-04-10T05:15:47.048Z,101346.25
2023-04-10T05:18:35.222Z,101351.63
2023-04-10T05:21:30.903Z,101351.84
2023-04-10T05:24:04.901Z,101346.66
2023-04-10T05:26:49.050Z,101335.94
2023-04-10T05:29:30.749Z,101335.84
2023-04-10T05:32:11.690Z,101340.03
2023-04-10T05:34:51.179Z,101321.84
2023-04-10T05:37:34.236Z,101330.47
2023-04-10T05:40:22.730Z,101334.81
2023-04-10T05:42:55.654Z,101347.59
2023-04-10T05:45:51.694Z,101347.41
2023-04-10T05:48:27.605Z,101346.34
2023-04-10T05:51:24.407Z,101342.84
2023-04-10T05:54:11.582Z,101347.19
2023-04-10T05:56:47.974Z,101337.81
2023-04-10T05:59:47.146Z,101337.75
2023-04-10T06:02:23.193Z,101337.56
2023-04-10T06:04:51.071Z,101341.78
2023-04-10T06:07:19.448Z,101345.66
2023-04-10T06:09:45.863Z,101347.75
2023-04-10T06:12:12.301Z,101346.03
2023-04-10T06:14:40.203Z,101351.13
2023-04-10T06:17:07.187Z,101345.69
2023-04-10T06:19:33.737Z,101346.53
2023-04-10T06:22:00.190Z,101339.13
2023-04-10T06:24:27.923Z,101334.78
2023-04-10T06:26:55.205Z,101340.25
2023-04-10T06:29:21.659Z,101327.66
2023-04-10T06:31:48.531Z,101330.03
2023-04-10T06:34:15.878Z,101328.66
2023-04-10T06:36:52.297Z,101330.16
2023-04-10T06:39:19.703Z,101327.38
2023-04-10T06:41:47.588Z,101318.72
2023-04-10T06:44:27.321Z,101321.38
2023-04-10T06:46:53.841Z,101321.34
2023-04-10T06:49:20.279Z,101318.53
2023-04-10T06:51:47.958Z,101312.69
2023-04-10T06:54:14.344Z,101309.66
2023-04-10T06:56:40.833Z,101319.81
2023-04-10T06:59:08.614Z,101314.84
2023-04-10T07:01:35.081Z,101311.91
2023-04-10T07:04:01.606Z,101316.25
2023-04-10T07:06:28.093Z,101312.41
2023-04-10T07:08:54.726Z,101314.34
2023-04-10T07:11:21.547Z,101320.94
2023-04-10T07:13:48.100Z,101315.59
2023-04-10T07:16:15.891Z,101312.22
2023-04-10T07:18:42.328Z,101311.75
2023-04-10T07:21:19.146Z,101314.09
2023-04-10T07:23:45.605Z,101321.16
2023-04-10T07:26:12.106Z,101309.34
2023-04-10T07:28:40.626Z,101316.78
2023-04-10T07:31:07.285Z,101313.81
2023-04-10T07:33:35.069Z,101315.28
2023-04-10T07:36:01.829Z,101308.28
2023-04-10T07:38:28.276Z,101295.00
2023-04-10T07:40:56.196Z,101295.00
2023-04-10T07:43:22.656Z,101296.06
2023-04-10T07:45:49.131Z,101290.53
2023-04-10T07:48:15.637Z,101289.41
2023-04-10T07:50:43.427Z,101294.94
2023-04-10T07:53:10.067Z,101292.34
2023-04-10T07:55:40.378Z,101296.59
2023-04-10T07:58:06.932Z,101286.63
2023-04-10T08:00:33.966Z,101289.31
2023-04-10T08:03:00.598Z,101283.47
2023-04-10T08:05:27.617Z,101273.34
2023-04-10T08:07:55.407Z,101274.03
2023-04-10T08:10:21.958Z,101278.91
2023-04-10T08:12:48.897Z,101278.53
2023-04-10T08:15:15.347Z,101271.97
2023-04-10T08:17:45.672Z,101269.41
2023-04-10T08:20:15.705Z,101272.66
2023-04-10T08:22:46.353Z,101280.78
2023-04-10T08:25:14.120Z,101270.19
2023-04-10T08:27:40.699Z,101267.56
2023-04-10T08:30:08.121Z,101263.53
2023-04-10T08:32:35.510Z,101262.41
2023-04-10T08:35:02.110Z,101268.94
2023-04-10T08:37:28.825Z,101260.63
2023-04-10T08:39:55.288Z,101261.25
2023-04-10T08:42:28.145Z,101260.38
2023-04-10T08:44:54.985Z,101260.22
2023-04-10T08:47:23.502Z,101257.03
2023-04-10T08:49:56.169Z,101246.13
2023-04-10T08:52:25.356Z,101240.44
2023-04-10T08:54:58.237Z,101239.19
2023-04-10T08:57:29.808Z,101235.88
2023-04-10T08:59:58.474Z,101236.50
2023-04-10T09:02:26.763Z,101229.94
2023-04-10T09:04:57.569Z,101223.63
2023-04-10T09:07:23.996Z,101222.06
2023-04-10T09:09:50.455Z,101225.09
2023-04-10T09:12:17.132Z,101219.69
2023-04-10T09:14:44.986Z,101217.63
2023-04-10T09:17:17.052Z,101213.56
2023-04-10T09:19:44.869Z,101214.22
2023-04-10T09:22:11.755Z,101205.78
2023-04-10T09:24:39.406Z,101209.75
2023-04-10T09:27:06.701Z,101195.47
2023-04-10T09:29:43.767Z,101207.09
2023-04-10T09:32:11.607Z,101199.59
2023-04-10T09:34:53.182Z,101198.13
2023-04-10T09:37:19.603Z,101187.41
2023-04-10T09:39:46.385Z,101194.59
2023-04-10T09:42:15.537Z,101185.44
2023-04-10T09:44:42.364Z,101183.44
2023-04-10T09:47:17.971Z,101173.88
2023-04-10T09:49:46.069Z,101168.97
2023-04-10T09:52:18.799Z,101163.22
2023-04-10T09:54:45.397Z,101163.03
2023-04-10T09:57:15.831Z,101162.66
2023-04-10T09:59:46.340Z,101156.00
2023-04-10T10:02:13.505Z,101155.56
2023-04-10T10:04:44.333Z,101146.38
2023-04-10T10:07:11.216Z,101131.88
2023-04-10T10:09:38.025Z,101127.22
2023-04-10T10:12:05.793Z,101125.34
2023-04-10T10:14:35.035Z,101116.47
2023-04-10T10:17:05.301Z,101128.16
2023-04-10T10:19:42.598Z,101123.69
2023-04-10T10:22:09.964Z,101126.31
2023-04-10T10:24:39.955Z,101117.91
2023-04-10T10:27:09.622Z,101108.09
2023-04-10T10:29:38.370Z,101106.50
2023-04-10T10:32:06.436Z,101102.78
2023-04-10T10:34:33.496Z,101101.91
2023-04-10T10:37:02.531Z,101090.22
2023-04-10T10:39:34.701Z,101085.50
2023-04-10T10:42:08.992Z,101085.16
2023-04-10T10:44:43.977Z,101077.97
2023-04-10T10:47:18.272Z,101075.16
2023-04-10T10:49:56.032Z,101076.16
2023-04-10T10:52:39.441Z,101069.97
2023-04-10T10:55:33.134Z,101070.53
2023-04-10T10:58:01.078Z,101063.41
2023-04-10T11:01:17.608Z,101060.41
2023-04-10T11:03:44.766Z,101064.09
2023-04-10T11:06:12.702Z,101063.69
2023-04-10T11:08:44.237Z,101055.78
2023-04-10T11:11:15.849Z,101052.41
2023-04-10T11:13:58.381Z,101038.31
2023-04-10T11:16:45.188Z,101035.72
2023-04-10T11:19:15.895Z,101038.25
2023-04-10T11:22:05.282Z,101027.16
2023-04-10T11:24:59.090Z,101017.13
2023-04-10T11:27:42.390Z,101007.78
2023-04-10T11:30:31.080Z,101013.09
2023-04-10T11:32:58.516Z,101013.94
2023-04-10T11:35:25.754Z,101014.66
2023-04-10T11:37:52.306Z,101012.91
2023-04-10T11:40:20.108Z,101008.25
2023-04-10T11:42:46.545Z,101007.28
2023-04-10T11:45:26.057Z,100996.53
2023-04-10T11:47:52.929Z,100992.91
2023-04-10T11:50:19.696Z,101000.34
2023-04-10T11:52:46.174Z,101003.19
2023-04-10T11:55:12.636Z,100996.69
2023-04-10T11:57:40.403Z,100986.16
2023-04-10T12:00:08.455Z,100985.25
2023-04-10T12:02:34.942Z,100981.47
2023-04-10T12:05:01.508Z,100966.31
2023-04-10T12:07:27.994Z,100958.19
2023-04-10T12:09:56.466Z,100943.38
2023-04-10T12:12:35.094Z,100940.72
2023-04-10T12:15:28.128Z,100945.41
2023-04-10T12:17:55.408Z,100934.13
2023-04-10T12:20:22.742Z,100925.41
2023-04-10T12:22:49.435Z,100927.91
2023-04-10T12:25:20.939Z,100915.25
2023-04-10T12:27:49.146Z,100913.16
2023-04-10T12:30:16.993Z,100914.41
2023-04-10T12:32:51.500Z,100916.78
2023-04-10T12:35:20.793Z,100912.44
2023-04-10T12:37:48.497Z,100911.81
2023-04-10T12:40:17.315Z,100906.34
2023-04-10T12:42:46.423Z,100901.34
2023-04-10T12:45:14.692Z,100898.75
2023-04-10T12:47:49.439Z,100883.56
2023-04-10T12:50:18.534Z,100890.41
2023-04-10T12:52:46.733Z,100877.34
2023-04-10T12:55:15.300Z,100866.53
2023-04-10T12:57:42.805Z,100860.31
2023-04-10T13:00:11.529Z,100856.56
2023-04-10T13:02:39.074Z,100852.22
2023-04-10T13:05:09.094Z,100841.00
2023-04-10T13:07:35.768Z,100840.63
2023-04-10T13:10:02.258Z,100834.78
2023-04-10T13:12:29.108Z,100827.22
2023-04-10T13:14:55.961Z,100816.88
2023-04-10T13:17:22.751Z,100816.16
2023-04-10T13:19:49.216Z,100816.59
2023-04-10T13:22:17.582Z,100803.22
2023-04-10T13:24:44.272Z,100800.50
2023-04-10T13:27:11.290Z,100785.47
2023-04-10T13:29:40.819Z,100781.28
2023-04-10T13:32:07.616Z,100777.94
2023-04-10T13:34:34.204Z,100770.75
2023-04-10T13:37:02.947Z,100773.34
2023-04-10T13:39:31.286Z,100776.44
2023-04-10T13:41:58.352Z,100759.25
2023-04-10T13:44:24.905Z,100757.81
2023-04-10T13:46:51.488Z,100749.41
2023-04-10T13:49:18.032Z,100741.28
2023-04-10T13:51:44.894Z,100742.88
2023-04-10T13:54:11.371Z,100727.84
2023-04-10T13:56:39.484Z,100726.03
2023-04-10T13:59:05.886Z,100712.22
2023-04-10T14:01:32.320Z,100709.94
2023-04-10T14:03:58.839Z,100719.78
2023-04-10T14:06:25.294Z,100715.75
2023-04-10T14:08:51.821Z,100711.69
2023-04-10T14:11:18.276Z,100706.94
2023-04-10T14:13:46.081Z,100697.19
2023-04-10T14:16:13.660Z,100698.47
2023-04-10T14:18:40.384Z,100706.69
2023-04-10T14:21:07.077Z,100690.00
2023-04-10T14:23:33.564Z,100686.47
2023-04-10T14:26:00.077Z,100683.31
2023-04-10T14:28:26.558Z,100672.97
2023-04-10T14:30:54.400Z,100690.53
2023-04-10T14:33:20.861Z,100673.84
2023-04-10T14:35:47.857Z,100683.75
2023-04-10T14:38:16.106Z,100676.38
2023-04-10T14:40:42.629Z,100674.66
2023-04-10T14:43:09.075Z,100667.28
2023-04-10T14:45:35.718Z,100662.41
2023-04-10T14:48:03.833Z,100639.66
2023-04-10T14:50:31.422Z,100646.09
2023-04-10T14:52:58.106Z,100636.78
2023-04-10T14:55:24.518Z,100650.94
2023-04-10T14:57:50.978Z,100633.94
2023-04-10T15:00:17.775Z,100631.97
2023-04-10T15:02:44.353Z,100617.31
2023-04-10T15:05:12.321Z,100614.47
2023-04-10T15:07:38.775Z,100614.66
2023-04-10T15:10:06.263Z,100601.44
2023-04-10T15:12:32.648Z,100620.53
2023-04-10T15:14:59.147Z,100597.50
2023-04-10T15:17:25.619Z,100604.16
2023-04-10T15:19:52.136Z,100603.41
2023-04-10T15:22:19.982Z,100599.66
2023-04-10T15:24:50.994Z,100598.84
2023-04-10T15:27:19.337Z,100594.16
2023-04-10T15:29:45.754Z,100584.38
2023-04-10T15:32:13.882Z,100581.13
2023-04-10T15:34:40.303Z,100590.34
2023-04-10T15:37:06.860Z,100584.19
2023-04-10T15:39:34.608Z,100580.78
2023-04-10T15:42:01.066Z,100583.31
2023-04-10T15:44:27.607Z,100575.19
2023-04-10T15:49:38.199Z,100570.03
2023-04-10T15:52:05.475Z,100576.00
2023-04-10T15:54:32.894Z,100579.06
2023-04-10T15:57:00.701Z,100572.00
2023-04-10T15:59:27.271Z,100572.84
2023-04-10T16:01:53.851Z,100562.38
2023-04-10T16:04:20.848Z,100569.94
2023-04-10T16:06:47.772Z,100560.88
2023-04-10T16:09:25.743Z,100558.13
2023-04-10T16:11:53.437Z,100554.00
2023-04-10T16:14:21.676Z,100550.34
2023-04-10T16:16:48.121Z,100540.75
2023-04-10T16:19:14.606Z,100545.88
2023-04-10T16:21:40.989Z,100534.56
2023-04-10T16:24:07.825Z,100531.03
2023-04-10T16:26:34.223Z,100524.84
2023-04-10T16:29:00.695Z,100533.75
2023-04-10T16:31:28.509Z,100525.97
2023-04-10T16:33:55.009Z,100524.28
2023-04-10T16:36:21.578Z,100518.13
2023-04-10T16:38:48.057Z,100502.22
2023-04-10T16:41:26.821Z,100506.38
2023-04-10T16:43:53.228Z,100495.84
2023-04-10T16:46:19.896Z,100490.56
2023-04-10T16:48:47.776Z,100500.19
2023-04-10T16:51:17.882Z,100488.00
2023-04-10T16:53:44.479Z,100494.94
2023-04-10T16:56:11.053Z,100476.31
2023-04-10T16:58:37.541Z,100479.22
2023-04-10T17:01:13.352Z,100473.03
2023-04-10T17:03:39.877Z,100467.03
2023-04-10T17:06:07.769Z,100470.09
2023-04-10T17:08:34.217Z,100464.06
2023-04-10T17:11:00.671Z,100457.06
2023-04-10T17:13:27.052Z,100459.41
2023-04-10T17:15:53.460Z,100466.13
2023-04-10T17:18:19.892Z,100459.16
2023-04-10T17:20:48.220Z,100458.31
2023-04-10T17:23:16.281Z,100444.88
2023-04-10T17:25:42.768Z,100445.03
2023-04-10T17:28:09.262Z,100444.53
2023-04-10T17:30:35.646Z,100438.59
2023-04-10T17:33:02.243Z,100440.50
2023-04-10T17:35:28.722Z,100440.09
2023-04-10T17:37:55.246Z,100433.19
2023-04-10T17:40:23.027Z,100427.13
2023-04-10T17:42:49.439Z,100431.16
2023-04-10T17:45:16.253Z,100418.13
2023-04-10T17:47:42.805Z,100433.53
2023-04-10T17:50:09.600Z,100425.66
2023-04-10T17:52:35.976Z,100416.97
2023-04-10T17:55:02.480Z,100416.31
2023-04-10T17:57:30.300Z,100414.84
2023-04-10T18:02:37.386Z,100400.13
2023-04-10T18:05:04.392Z,100421.06
2023-04-10T18:07:30.870Z,100407.81
2023-04-10T18:09:57.267Z,100409.75
2023-04-10T18:12:23.695Z,100414.41
2023-04-10T18:14:51.737Z,100405.50
2023-04-10T18:17:18.144Z,100412.13
2023-04-10T18:19:44.898Z,100404.97
2023-04-10T18:22:11.346Z,100415.06
2023-04-10T18:24:37.885Z,100411.41
2023-04-10T18:27:04.280Z,100413.38
2023-04-10T18:29:30.931Z,100408.97
2023-04-10T18:31:58.685Z,100407.25
2023-04-10T18:34:25.806Z,100410.13
2023-04-10T18:36:52.189Z,100396.69
2023-04-10T18:39:18.550Z,100413.84
2023-04-10T18:41:44.930Z,100398.34
2023-04-10T18:44:11.553Z,100411.19
2023-04-10T18:46:38.349Z,100402.22
2023-04-10T18:49:06.245Z,100408.47
2023-04-10T18:51:34.907Z,100400.69
2023-04-10T18:54:01.879Z,100398.78
2023-04-10T18:56:28.351Z,100392.56
2023-04-10T18:58:54.961Z,100398.91
2023-04-10T19:01:21.391Z,100390.81
2023-04-10T19:03:50.827Z,100392.72
2023-04-10T19:06:20.294Z,100385.50
2023-04-10T19:08:46.726Z,100382.09
2023-04-10T19:11:13.232Z,100375.72
2023-04-10T19:13:39.745Z,100361.16
2023-04-10T19:16:06.976Z,100355.50
2023-04-10T19:18:33.441Z,100352.63
2023-04-10T19:20:59.859Z,100360.34
2023-04-10T19:23:27.670Z,100362.94
2023-04-10T19:25:54.888Z,100347.69
2023-04-10T19:28:22.975Z,100345.38
2023-04-10T19:30:49.733Z,100340.19
2023-04-10T19:33:16.295Z,100335.31
2023-04-10T19:35:42.736Z,100341.66
2023-04-10T19:38:09.161Z,100331.66
2023-04-10T19:40:37.090Z,100330.31
2023-04-10T19:43:03.758Z,100322.06
2023-04-10T19:45:30.256Z,100326.59
2023-04-10T19:47:56.750Z,100326.34
2023-04-10T19:50:23.713Z,100320.63
2023-04-10T19:52:51.390Z,100321.75
2023-04-10T19:55:19.089Z,100316.63
2023-04-10T19:57:47.447Z,100323.81
2023-04-10T20:00:14.201Z,100309.69
2023-04-10T20:02:41.006Z,100315.28
2023-04-10T20:05:08.223Z,100309.06
2023-04-10T20:07:35.484Z,100297.59
2023-04-10T20:10:02.460Z,100311.41
2023-04-10T20:12:29.234Z,100299.78
2023-04-10T20:14:56.970Z,100292.72
2023-04-10T20:17:23.414Z,100291.25
2023-04-10T20:19:49.923Z,100289.66
2023-04-10T20:22:16.468Z,100298.84
2023-04-10T20:24:43.015Z,100284.56
2023-04-10T20:27:09.459Z,100282.81
2023-04-10T20:29:35.847Z,100265.22
2023-04-10T20:32:03.606Z,100269.69
2023-04-10T20:34:30.098Z,100274.38
2023-04-10T20:36:56.534Z,100272.75
2023-04-10T20:39:22.978Z,100275.66
2023-04-10T20:41:49.430Z,100271.94
2023-04-10T20:44:15.949Z,100265.84
2023-04-10T20:46:42.489Z,100264.06
2023-04-10T20:49:11.116Z,100265.00
2023-04-10T20:51:37.578Z,100267.06
2023-04-10T20:54:04.226Z,100255.19
2023-04-10T20:56:40.681Z,100255.38
2023-04-10T20:59:09.652Z,100241.06
2023-04-10T21:01:36.394Z,100247.09
2023-04-10T21:04:03.067Z,100231.22
2023-04-10T21:06:31.855Z,100239.16
2023-04-10T21:08:58.476Z,100227.59
2023-04-10T21:11:25.710Z,100228.50
2023-04-10T21:13:52.158Z,100221.34
2023-04-10T21:16:18.901Z,100221.50
2023-04-10T21:18:45.412Z,100219.13
2023-04-10T21:21:11.838Z,100218.31
2023-04-10T21:23:39.589Z,100207.91
2023-04-10T21:26:06.336Z,100211.56
2023-04-10T21:28:32.963Z,100214.31
2023-04-10T21:30:59.403Z,100199.19
2023-04-10T21:33:25.865Z,100204.78
2023-04-10T21:35:52.465Z,100196.88
2023-04-10T21:38:18.918Z,100199.59
2023-04-10T21:40:51.480Z,100199.72
2023-04-10T21:43:18.078Z,100188.94
2023-04-10T21:45:44.521Z,100174.75
2023-04-10T21:48:11.004Z,100172.03
2023-04-10T21:50:37.556Z,100178.41
2023-04-10T21:53:04.047Z,100160.63
2023-04-10T21:55:30.574Z,100160.63
2023-04-10T21:57:58.391Z,100159.81
2023-04-10T22:00:24.978Z,100156.47
2023-04-10T22:02:51.703Z,100156.28
2023-04-10T22:05:18.488Z,100161.69
2023-04-10T22:07:44.991Z,100152.59
2023-04-10T22:10:11.649Z,100155.63
2023-04-10T22:12:38.298Z,100151.38
2023-04-10T22:15:06.956Z,100156.59
2023-04-10T22:17:33.653Z,100142.22
2023-04-10T22:20:00.380Z,100133.06
2023-04-10T22:22:26.771Z,100123.03
2023-04-10T22:24:53.176Z,100121.28
2023-04-10T22:27:19.627Z,100121.28
2023-04-10T22:29:56.280Z,100112.38
2023-04-10T22:32:30.321Z,100098.94
2023-04-10T22:34:58.290Z,100088.97
2023-04-10T22:37:24.717Z,100075.34
2023-04-10T22:39:51.172Z,100077.13
2023-04-10T22:42:17.647Z,100076.34
2023-04-10T22:44:44.355Z,100080.03
2023-04-10T22:47:10.826Z,100082.03
2023-04-10T22:49:38.619Z,100072.06
2023-04-10T22:52:05.340Z,100069.44
2023-04-10T22:54:31.743Z,100070.25
2023-04-10T22:56:58.251Z,100062.88
2023-04-10T22:59:24.716Z,100058.41
2023-04-10T23:01:51.462Z,100065.66
2023-04-10T23:04:18.211Z,100056.56
2023-04-10T23:06:46.009Z,100047.47
2023-04-10T23:09:12.597Z,100040.44
2023-04-10T23:11:39.082Z,100034.00
2023-04-10T23:14:05.504Z,100018.84
2023-04-10T23:16:32.178Z,100025.16
2023-04-10T23:19:02.117Z,100024.22
2023-04-10T23:21:28.526Z,100019.66
2023-04-10T23:23:56.290Z,100015.06
2023-04-10T23:26:23.011Z,100008.78
2023-04-10T23:28:49.432Z,100006.91
2023-04-10T23:31:15.891Z,99982.50
2023-04-10T23:33:42.443Z,99982.41
2023-04-10T23:36:09.253Z,99974.34
2023-04-10T23:38:35.694Z,99963.53
2023-04-10T23:41:03.552Z,99950.13
2023-04-10T23:43:30.013Z,99941.03
2023-04-10T23:45:56.722Z,99935.59
2023-04-10T23:48:23.200Z,99928.44
2023-04-10T23:50:49.892Z,99924.91
2023-04-10T23:53:16.335Z,99922.38
2023-04-10T23:55:42.765Z,99916.03
2023-04-10T23:58:10.497Z,99917.13
